ESCO2: Skeleton Creek at Enid, OK

Data processed at Fri Mar 09 2018 23:08


All information presented herein is the property of the government of the United States of America and may be revised or deleted at any time without prior notice.
Dissemination of this information without the expressed written consent of the Public Affairs Office, Tulsa District U.S. Army Corps of Engineers is strictly prohibited.
These data are gathered electronically and, as presented, have not undergone any form of quality control. These data are not guaranteed to be valid or correct.
Go to home page.
Go to station list.

Downstream station:


Previous Day
Next Day
Current Day
    
SHEF ID:       ESCO2     Skeleton Creek at Enid, OK
STATION TYPE:  

               PRECIP     STAGE  RIV-FLOW  WTR-TEMP   CONDUCT  BAT-LOAD
                   in        ft       cfs         F   umho/cm      volt
              Ccp-Rev   Ccp-Rev   Ccp-Rev   Ccp-Rev   Ccp-Rev   Ccp-Rev
(US/Central)
03/07 00:00      0.00      2.53         5     42.15      1355     12.81
03/07 01:00      0.00      2.54         5     41.11      1357     12.73
03/07 02:00      0.00      2.52         4     40.57      1357     12.73
03/07 03:00      0.00      2.54         5     39.29      1361     12.65
03/07 04:00      0.00      2.54         5     38.50      1363     12.65
03/07 05:00      0.00      2.53         5     37.83      1364     12.65
03/07 06:00      0.00      2.53         5     37.36      1365     12.65
03/07 07:00      0.00      2.53         5     36.93      1366     12.57
03/07 08:00      0.00      2.52         4     36.91      1366     12.57
03/07 09:00      0.00      2.52         4     37.98      1367     12.73
03/07 10:00      0.00      2.44         2     40.50      1366     13.53
03/07 11:00      0.00      2.51         4     47.35      1366     13.53
03/07 12:00      0.00      2.58         6     53.73      1360     13.53
03/07 13:00      0.00      2.65         9     57.00      1361     13.44
03/07 14:00      0.00      2.52         4     60.66      1363     13.53
03/07 15:00      0.00      2.52         4     62.87      1362     13.44
03/07 16:00      0.00      2.52         4     62.11      1362     13.44
03/07 17:00      0.00      2.51         4     58.10      1360     13.37
03/07 18:00      0.00      2.51         4     52.81      1357     13.37
03/07 19:00      0.00      2.52         4     49.19      1353     13.13
03/07 20:00      0.00      2.52         4     46.81      1348     12.97
03/07 21:00      0.00      2.55         5     45.01      1348     12.89
03/07 22:00      0.00      2.57         6     44.10      1348     12.81
03/07 23:00      0.00      2.58         6     43.14      1349     12.81